Aviation Digital Data Service (ADDS)

Output produced by TAFs form (1047 UTC 18 April 2014)
found at http://aviationweather.gov/adds/tafs/
 
KGJT 180528Z 1806/1906 11012KT P6SM SCT250 
     FM181900 20012G22KT P6SM SCT120 BKN250 
     FM190200 33005KT P6SM SCT100 BKN150